createdAt,value
2023-05-06T00:00:17.535Z,20.50
2023-05-06T00:05:19.409Z,17.90
2023-05-06T00:10:21.412Z,18.98
2023-05-06T00:15:23.371Z,16.25
2023-05-06T00:20:25.533Z,17.92
2023-05-06T00:25:27.420Z,17.13
2023-05-06T00:30:29.581Z,18.40
2023-05-06T00:35:31.559Z,18.20
2023-05-06T00:40:33.405Z,18.33
2023-05-06T00:45:35.623Z,17.42
2023-05-06T00:50:39.667Z,18.33
2023-05-06T00:55:41.787Z,17.33
2023-05-06T01:00:43.726Z,16.98
2023-05-06T01:05:59.964Z,21.17
2023-05-06T01:11:15.790Z,18.55
2023-05-06T01:16:20.682Z,17.77
2023-05-06T01:21:24.257Z,15.88
2023-05-06T01:26:27.402Z,19.95
2023-05-06T01:31:43.062Z,18.80
2023-05-06T01:37:20.458Z,17.80
2023-05-06T01:42:24.685Z,17.80
2023-05-06T01:47:27.126Z,17.00
2023-05-06T01:52:29.002Z,18.15
2023-05-06T01:57:30.927Z,17.85
2023-05-06T02:02:32.850Z,17.70
2023-05-06T02:07:34.671Z,17.63
2023-05-06T02:12:36.791Z,17.00
2023-05-06T02:17:38.910Z,16.67
2023-05-06T02:22:40.834Z,16.98
2023-05-06T02:27:42.740Z,18.83
2023-05-06T02:32:44.617Z,17.55
2023-05-06T02:37:46.441Z,19.33
2023-05-06T02:42:48.399Z,20.95
2023-05-06T02:47:50.281Z,17.55
2023-05-06T02:52:52.238Z,23.02
2023-05-06T02:57:54.094Z,17.17
2023-05-06T03:02:56.018Z,16.17
2023-05-06T03:07:58.023Z,14.45
2023-05-06T03:12:59.991Z,20.83
2023-05-06T03:18:03.141Z,17.52
2023-05-06T03:23:05.438Z,20.77
2023-05-06T03:28:07.467Z,19.02
2023-05-06T03:33:12.253Z,18.75
2023-05-06T03:38:14.493Z,16.52
2023-05-06T03:43:26.128Z,16.25
2023-05-06T03:48:32.234Z,20.48
2023-05-06T03:53:34.327Z,17.25
2023-05-06T03:58:38.389Z,16.30
2023-05-06T04:03:42.944Z,17.92
2023-05-06T04:08:44.966Z,17.90
2023-05-06T04:13:47.104Z,17.67
2023-05-06T04:18:52.984Z,19.70
2023-05-06T04:23:54.872Z,17.63
2023-05-06T04:29:03.744Z,15.23
2023-05-06T04:34:08.278Z,19.35
2023-05-06T04:39:10.638Z,11.07
2023-05-06T04:44:14.080Z,14.52
2023-05-06T04:49:18.519Z,10.23
2023-05-06T04:54:20.515Z,6.63
2023-05-06T04:59:22.511Z,8.57
2023-05-06T05:04:24.564Z,7.05
2023-05-06T05:09:26.514Z,5.85
2023-05-06T05:14:28.595Z,6.72
2023-05-06T05:19:30.642Z,5.38
2023-05-06T05:24:32.577Z,5.07
2023-05-06T05:29:34.638Z,4.82
2023-05-06T05:34:39.373Z,4.88
2023-05-06T05:39:41.654Z,4.20
2023-05-06T05:44:45.841Z,4.28
2023-05-06T05:49:47.698Z,3.30
2023-05-06T05:54:51.628Z,4.53
2023-05-06T05:59:53.693Z,4.57
2023-05-06T06:04:55.740Z,5.05
2023-05-06T06:09:58.185Z,4.38
2023-05-06T06:15:00.126Z,4.45
2023-05-06T06:20:02.126Z,4.10
2023-05-06T06:25:04.279Z,3.97
2023-05-06T06:30:07.885Z,3.90
2023-05-06T06:35:09.963Z,4.32
2023-05-06T06:40:12.583Z,5.28
2023-05-06T06:45:14.744Z,4.60
2023-05-06T06:50:16.623Z,3.92
2023-05-06T06:55:18.580Z,4.13
2023-05-06T07:00:20.427Z,4.90
2023-05-06T07:05:23.420Z,4.13
2023-05-06T07:10:25.330Z,5.25
2023-05-06T07:15:27.232Z,4.25
2023-05-06T07:20:29.076Z,4.35
2023-05-06T07:25:31.428Z,5.22
2023-05-06T07:30:33.596Z,4.63
2023-05-06T07:35:36.950Z,5.07
2023-05-06T07:40:38.811Z,5.45
2023-05-06T07:45:41.180Z,5.00
2023-05-06T07:50:43.035Z,4.50
2023-05-06T07:55:44.898Z,4.97
2023-05-06T08:00:46.785Z,5.00
2023-05-06T08:05:53.635Z,4.68
2023-05-06T08:10:56.355Z,5.20
2023-05-06T08:15:58.271Z,6.07
2023-05-06T08:21:00.169Z,5.75
2023-05-06T08:26:02.063Z,7.15
2023-05-06T08:31:03.928Z,6.57
2023-05-06T08:36:05.970Z,6.82
2023-05-06T08:41:11.953Z,7.50
2023-05-06T08:46:14.601Z,7.03
2023-05-06T08:51:16.991Z,7.38
2023-05-06T08:56:20.218Z,7.40
2023-05-06T09:01:22.293Z,8.20
2023-05-06T09:06:25.132Z,8.45
2023-05-06T09:11:30.642Z,9.23
2023-05-06T09:16:32.741Z,9.60
2023-05-06T09:21:34.649Z,11.18
2023-05-06T09:26:39.473Z,12.05
2023-05-06T09:31:46.164Z,11.00
2023-05-06T09:36:48.085Z,11.63
2023-05-06T09:41:50.157Z,12.23
2023-05-06T09:46:52.300Z,13.05
2023-05-06T09:51:54.172Z,11.45
2023-05-06T09:56:57.057Z,11.98
2023-05-06T10:02:00.437Z,11.40
2023-05-06T10:07:04.114Z,12.30
2023-05-06T10:12:08.758Z,12.27
2023-05-06T10:17:12.666Z,12.07
2023-05-06T10:22:56.745Z,12.02
2023-05-06T10:28:00.054Z,12.70
2023-05-06T10:33:10.826Z,12.55
2023-05-06T10:38:28.474Z,14.45
2023-05-06T10:43:32.340Z,14.35
2023-05-06T10:48:35.688Z,14.55
2023-05-06T10:54:00.379Z,14.23
2023-05-06T10:59:12.903Z,14.00
2023-05-06T11:04:18.752Z,13.73
2023-05-06T11:09:21.996Z,14.88
2023-05-06T11:14:37.361Z,14.27
2023-05-06T11:19:40.102Z,15.20
2023-05-06T11:24:43.747Z,14.90
2023-05-06T11:29:45.602Z,14.10
2023-05-06T11:34:47.469Z,14.60
2023-05-06T11:39:49.685Z,14.93
2023-05-06T11:44:55.226Z,14.40
2023-05-06T11:49:58.605Z,15.20
2023-05-06T11:55:00.575Z,15.43
2023-05-06T12:00:05.043Z,14.27
2023-05-06T12:05:13.831Z,14.38
2023-05-06T12:10:17.266Z,14.30
2023-05-06T12:15:19.314Z,14.13
2023-05-06T12:20:22.524Z,14.77
2023-05-06T12:25:24.314Z,14.35
2023-05-06T12:30:31.286Z,14.18
2023-05-06T12:35:33.211Z,15.75
2023-05-06T12:40:35.339Z,14.38
2023-05-06T12:45:40.965Z,14.70
2023-05-06T12:50:45.061Z,14.50
2023-05-06T12:55:46.912Z,14.90
2023-05-06T13:00:48.794Z,14.68
2023-05-06T13:05:51.892Z,15.38
2023-05-06T13:10:53.829Z,15.60
2023-05-06T13:15:56.487Z,15.93
2023-05-06T13:21:00.289Z,16.45
2023-05-06T13:26:05.985Z,15.88
2023-05-06T13:31:08.597Z,15.10
2023-05-06T13:36:10.668Z,15.45
2023-05-06T13:41:12.710Z,15.48
2023-05-06T13:46:14.644Z,15.38
2023-05-06T13:51:16.551Z,15.13
2023-05-06T13:56:18.394Z,15.40
2023-05-06T14:01:24.538Z,15.23
2023-05-06T14:06:27.699Z,15.70
2023-05-06T14:11:29.774Z,15.30
2023-05-06T14:16:31.803Z,14.90
2023-05-06T14:21:34.629Z,15.02
2023-05-06T14:26:36.533Z,14.82
2023-05-06T14:31:38.478Z,14.55
2023-05-06T14:36:40.452Z,14.55
2023-05-06T14:41:42.289Z,14.63
2023-05-06T14:46:44.130Z,14.55
2023-05-06T14:51:49.903Z,15.38
2023-05-06T14:56:51.818Z,15.02
2023-05-06T15:01:53.745Z,15.00
2023-05-06T15:06:57.751Z,15.00
2023-05-06T15:12:00.554Z,15.63
2023-05-06T15:17:02.421Z,15.80
2023-05-06T15:22:04.505Z,16.70
2023-05-06T15:27:07.005Z,15.70
2023-05-06T15:32:09.138Z,15.32
2023-05-06T15:37:13.302Z,15.27
2023-05-06T15:42:16.717Z,15.23
2023-05-06T15:47:18.799Z,16.08
2023-05-06T15:52:21.256Z,15.80
2023-05-06T15:57:23.176Z,15.70
2023-05-06T16:02:27.277Z,16.30
2023-05-06T16:07:29.976Z,17.00
2023-05-06T16:12:32.723Z,17.95
2023-05-06T16:17:37.681Z,16.40
2023-05-06T16:22:40.554Z,15.80
2023-05-06T16:27:42.391Z,29.77
2023-05-06T16:32:44.437Z,29.75
2023-05-06T16:37:46.332Z,20.63
2023-05-06T16:42:49.654Z,20.10
2023-05-06T16:47:51.648Z,16.85
2023-05-06T16:52:54.080Z,14.63
2023-05-06T16:57:56.043Z,15.13
2023-05-06T17:02:58.086Z,16.17
2023-05-06T17:07:59.988Z,16.52
2023-05-06T17:13:01.949Z,16.08
2023-05-06T17:18:04.024Z,14.20
2023-05-06T17:23:05.930Z,15.73
2023-05-06T17:28:07.750Z,12.18
2023-05-06T17:33:09.930Z,13.35
2023-05-06T17:38:13.008Z,12.15
2023-05-06T17:43:14.833Z,13.23
2023-05-06T17:48:16.702Z,14.45
2023-05-06T17:53:18.589Z,11.82
2023-05-06T17:58:21.486Z,9.25
2023-05-06T18:03:23.855Z,19.80
2023-05-06T18:08:25.756Z,11.80
2023-05-06T18:13:27.615Z,11.65
2023-05-06T18:18:29.600Z,10.30
2023-05-06T18:23:31.605Z,13.80
2023-05-06T18:28:37.872Z,7.40
2023-05-06T18:33:39.694Z,9.10
2023-05-06T18:38:41.579Z,8.27
2023-05-06T18:43:43.409Z,9.77
2023-05-06T18:48:45.521Z,7.22
2023-05-06T18:53:47.774Z,7.55
2023-05-06T18:58:49.621Z,8.30
2023-05-06T19:03:54.334Z,9.00
2023-05-06T19:08:56.262Z,9.48
2023-05-06T19:13:58.208Z,7.53
2023-05-06T19:19:02.610Z,7.50
2023-05-06T19:24:05.872Z,6.43
2023-05-06T19:29:07.769Z,6.85
2023-05-06T19:34:09.887Z,7.40
2023-05-06T19:39:11.675Z,6.85
2023-05-06T19:44:14.078Z,7.85
2023-05-06T19:49:15.945Z,9.75
2023-05-06T19:54:19.431Z,7.57
2023-05-06T19:59:21.283Z,7.60
2023-05-06T20:04:23.085Z,6.95
2023-05-06T20:09:24.900Z,6.28
2023-05-06T20:14:26.760Z,6.55
2023-05-06T20:19:31.962Z,7.97
2023-05-06T20:24:34.834Z,6.68
2023-05-06T20:29:36.701Z,6.10
2023-05-06T20:34:38.596Z,7.18
2023-05-06T20:39:40.666Z,9.32
2023-05-06T20:44:43.441Z,9.18
2023-05-06T20:49:45.296Z,8.65
2023-05-06T20:54:47.440Z,7.47
2023-05-06T20:59:52.527Z,7.43
2023-05-06T21:04:54.585Z,6.97
2023-05-06T21:09:56.407Z,8.18
2023-05-06T21:14:59.697Z,7.50
2023-05-06T21:20:02.044Z,6.90
2023-05-06T21:25:06.042Z,6.10
2023-05-06T21:30:09.087Z,7.78
2023-05-06T21:35:11.108Z,6.70
2023-05-06T21:40:13.368Z,6.57
2023-05-06T21:45:16.290Z,7.07
2023-05-06T21:50:18.203Z,6.75
2023-05-06T21:55:20.065Z,6.68
2023-05-06T22:00:23.014Z,6.63
2023-05-06T22:05:25.178Z,6.10
2023-05-06T22:10:26.984Z,6.30
2023-05-06T22:15:28.824Z,7.13
2023-05-06T22:20:30.780Z,6.38
2023-05-06T22:25:32.552Z,6.70
2023-05-06T22:30:34.363Z,5.00
2023-05-06T22:35:36.236Z,5.93
2023-05-06T22:40:38.074Z,7.38
2023-05-06T22:45:39.932Z,5.38
2023-05-06T22:50:42.035Z,6.03
2023-05-06T22:55:45.430Z,7.05
2023-05-06T23:00:48.061Z,5.68
2023-05-06T23:05:50.191Z,4.88
2023-05-06T23:10:52.108Z,6.50
2023-05-06T23:15:53.962Z,5.38
2023-05-06T23:20:55.777Z,5.05
2023-05-06T23:25:57.629Z,5.28
2023-05-06T23:30:59.533Z,5.28
2023-05-06T23:36:02.481Z,6.13
2023-05-06T23:41:04.343Z,5.70
2023-05-06T23:46:06.267Z,5.22
2023-05-06T23:51:08.155Z,5.28
2023-05-06T23:56:09.978Z,5.38
